This is the latest recevied weather packets stored in our database for station/object K7CTM. If no packets are shown the sender has not sent any weather packets the latest 10 day(s).
| Time | Temp. | Humidity | Pressure | Rain* | Wind** | Luminosity | Snow |
|---|---|---|---|---|---|---|---|
| 1777956037 | 7.78° C | 43% | 1025.5 hPa | 0 mm | - | 0 W/m² | - |
| 1777955733 | 7.78° C | 43% | 1025.6 hPa | 0 mm | - | 0 W/m² | - |
| 1777955430 | 7.78° C | 43% | 1025.4 hPa | 0 mm | - | 0 W/m² | - |
| 1777955125 | 7.78° C | 43% | 1025.6 hPa | 0 mm | - | 0 W/m² | - |
| 1777954823 | 7.78° C | 44% | 1025.6 hPa | 0 mm | - | 0 W/m² | - |
| 1777954520 | 7.78° C | 45% | 1025.6 hPa | 0 mm | - | 0 W/m² | - |
| 1777954217 | 7.78° C | 44% | 1025.5 hPa | 0 mm | - | 0 W/m² | - |
| 1777953915 | 7.78° C | 45% | 1025.5 hPa | 0 mm | - | 0 W/m² | - |
| 1777953612 | 7.78° C | 46% | 1025.5 hPa | 0 mm | - | 0 W/m² | - |
| 1777943305 | 10.56° C | 45% | 1023.5 hPa | 0 mm | - | 38 W/m² | - |
| 1777942395 | 11.11° C | 43% | 1023.7 hPa | 0 mm | - | 71 W/m² | - |
| 1777933908 | 10.56° C | 42% | 1023.9 hPa | 0 mm | - | 107 W/m² | - |
| 1777932393 | 11.11° C | 42% | 1023.9 hPa | 0 mm | - | 141 W/m² | - |
| 1777929966 | 11.67° C | 42% | 1024.3 hPa | 0 mm | - | 197 W/m² | - |
| 1777926941 | 11.11° C | 44% | 1024.4 hPa | 0 mm | - | 207 W/m² | - |
| 1777919965 | 11.67° C | 42% | 1024.4 hPa | 0 mm | - | 391 W/m² | - |
| 1777919663 | 11.67° C | 43% | 1024.4 hPa | 0 mm | - | 413 W/m² | - |
| 1777919361 | 11.11° C | 42% | 1024.6 hPa | 0 mm | - | 323 W/m² | - |
| 1777919057 | 11.11° C | 43% | 1024.4 hPa | 0 mm | - | 325 W/m² | - |
| 1777918451 | 11.11° C | 42% | 1024.5 hPa | 0 mm | - | 358 W/m² | - |
| 1777918150 | 11.67° C | 42% | 1024.7 hPa | 0 mm | - | 340 W/m² | - |
| 1777917848 | 11.67° C | 44% | 1024.8 hPa | 0 mm | - | 393 W/m² | - |
| 1777916638 | 11.67° C | 43% | 1024.8 hPa | 0 mm | - | 422 W/m² | - |
| 1777916335 | 12.22° C | 42% | 1024.7 hPa | 0 mm | - | 503 W/m² | - |
| 1777916031 | 11.67° C | 44% | 1024.7 hPa | 0 mm | - | 482 W/m² | - |
* Rain latest hour (hover to see other rain measurements)
** Current wind speed in m/s (hover to see current wind gust speed)